createdAt,value
2022-10-14T00:00:59.118Z,99.05
2022-10-14T00:01:59.160Z,99.05
2022-10-14T00:02:59.153Z,99.01
2022-10-14T00:03:59.070Z,98.91
2022-10-14T00:04:59.089Z,98.95
2022-10-14T00:05:59.050Z,98.91
2022-10-14T00:06:59.071Z,98.95
2022-10-14T00:07:59.039Z,98.95
2022-10-14T00:08:59.082Z,99.05
2022-10-14T00:09:59.012Z,98.91
2022-10-14T00:10:59.002Z,99.05
2022-10-14T00:11:58.992Z,99.01
2022-10-14T00:12:58.981Z,99.01
2022-10-14T00:13:58.963Z,99.01
2022-10-14T00:14:58.992Z,99.01
2022-10-14T00:15:58.937Z,99.01
2022-10-14T00:16:58.978Z,99.11
2022-10-14T00:17:58.927Z,99.11
2022-10-14T00:18:58.943Z,99.11
2022-10-14T00:19:58.943Z,99.11
2022-10-14T00:20:58.907Z,99.11
2022-10-14T00:21:58.916Z,99.11
2022-10-14T00:22:58.873Z,99.11
2022-10-14T00:23:58.861Z,99.01
2022-10-14T00:24:58.851Z,99.01
2022-10-14T00:25:58.827Z,99.01
2022-10-14T00:26:58.877Z,99.01
2022-10-14T00:27:58.877Z,99.11
2022-10-14T00:28:58.880Z,99.11
2022-10-14T00:29:58.876Z,99.11
2022-10-14T00:30:58.787Z,99.21
2022-10-14T00:31:58.777Z,99.21
2022-10-14T00:32:58.784Z,99.21
2022-10-14T00:33:58.758Z,99.31
2022-10-14T00:34:58.869Z,99.31
2022-10-14T00:35:58.728Z,99.31
2022-10-14T00:36:58.719Z,99.41
2022-10-14T00:37:58.733Z,99.41
2022-10-14T00:38:58.698Z,99.52
2022-10-14T00:39:58.698Z,99.52
2022-10-14T00:40:58.720Z,99.62
2022-10-14T00:41:58.660Z,99.52
2022-10-14T00:42:58.702Z,99.62
2022-10-14T00:43:58.663Z,99.62
2022-10-14T00:44:58.632Z,99.62
2022-10-14T00:45:58.602Z,99.72
2022-10-14T00:46:58.642Z,99.72
2022-10-14T00:47:58.591Z,99.72
2022-10-14T00:48:58.591Z,99.72
2022-10-14T00:49:58.597Z,99.72
2022-10-14T00:50:58.562Z,99.82
2022-10-14T00:51:58.573Z,99.82
2022-10-14T00:52:58.544Z,99.82
2022-10-14T00:53:58.524Z,99.82
2022-10-14T00:54:59.522Z,99.82
2022-10-14T00:55:58.503Z,99.92
2022-10-14T00:56:58.496Z,99.92
2022-10-14T00:57:58.486Z,99.92
2022-10-14T00:58:58.467Z,99.92
2022-10-14T00:59:58.459Z,99.92
2022-10-14T01:00:58.555Z,99.92
2022-10-14T01:01:58.435Z,99.92
2022-10-14T01:02:58.438Z,99.99
2022-10-14T01:03:58.427Z,99.99
2022-10-14T01:04:58.425Z,99.99
2022-10-14T01:05:58.397Z,99.99
2022-10-14T01:06:58.442Z,99.99
2022-10-14T01:07:58.387Z,99.99
2022-10-14T01:08:58.358Z,99.99
2022-10-14T01:09:58.348Z,99.99
2022-10-14T01:10:58.343Z,99.99
2022-10-14T01:12:23.508Z,99.99
2022-10-14T01:12:59.330Z,99.99
2022-10-14T01:13:58.313Z,99.99
2022-10-14T01:14:58.312Z,99.99
2022-10-14T01:15:58.298Z,99.99
2022-10-14T01:16:58.278Z,99.99
2022-10-14T01:17:58.309Z,99.99
2022-10-14T01:18:58.279Z,99.99
2022-10-14T01:19:58.244Z,99.99
2022-10-14T01:20:58.249Z,99.99
2022-10-14T01:21:58.221Z,99.99
2022-10-14T01:22:58.217Z,99.99
2022-10-14T01:23:58.222Z,99.99
2022-10-14T01:24:58.201Z,99.99
2022-10-14T01:25:58.182Z,99.99
2022-10-14T01:26:58.171Z,99.99
2022-10-14T01:27:58.156Z,99.99
2022-10-14T01:28:58.187Z,99.99
2022-10-14T01:29:58.159Z,99.99
2022-10-14T01:30:58.124Z,99.99
2022-10-14T01:31:58.137Z,99.99
2022-10-14T01:32:58.114Z,99.99
2022-10-14T01:33:58.086Z,99.99
2022-10-14T01:34:58.131Z,99.99
2022-10-14T01:35:58.065Z,99.99
2022-10-14T01:36:58.059Z,99.99
2022-10-14T01:37:58.053Z,99.99
2022-10-14T01:38:58.067Z,99.99
2022-10-14T01:39:58.034Z,99.99
2022-10-14T01:40:58.026Z,99.99
2022-10-14T01:41:58.017Z,99.99
2022-10-14T01:42:58.002Z,99.99
2022-10-14T01:43:57.995Z,99.99
2022-10-14T01:44:58.018Z,99.99
2022-10-14T01:45:58.014Z,99.99
2022-10-14T01:46:57.981Z,99.99
2022-10-14T01:47:57.979Z,99.99
2022-10-14T01:48:57.932Z,99.99
2022-10-14T01:49:57.943Z,99.99
2022-10-14T01:50:57.964Z,99.99
2022-10-14T01:51:58.018Z,99.99
2022-10-14T01:52:57.909Z,99.99
2022-10-14T01:53:57.924Z,99.99
2022-10-14T01:54:57.879Z,99.99
2022-10-14T01:55:57.887Z,99.99
2022-10-14T01:56:57.875Z,99.99
2022-10-14T01:57:57.859Z,99.99
2022-10-14T01:58:57.827Z,99.99
2022-10-14T01:59:57.824Z,99.99
2022-10-14T02:00:58.747Z,99.99
2022-10-14T02:01:57.909Z,99.99
2022-10-14T02:02:57.825Z,99.99
2022-10-14T02:03:57.815Z,99.99
2022-10-14T02:04:57.743Z,99.99
2022-10-14T02:05:57.747Z,99.99
2022-10-14T02:06:57.723Z,99.99
2022-10-14T02:07:57.737Z,99.99
2022-10-14T02:08:57.714Z,99.99
2022-10-14T02:09:57.710Z,99.99
2022-10-14T02:11:01.923Z,99.99
2022-10-14T02:11:57.675Z,99.99
2022-10-14T02:12:57.671Z,99.99
2022-10-14T02:13:57.691Z,99.99
2022-10-14T02:14:57.636Z,99.99
2022-10-14T02:15:57.630Z,99.99
2022-10-14T02:16:57.606Z,99.99
2022-10-14T02:17:57.636Z,99.99
2022-10-14T02:18:57.586Z,99.99
2022-10-14T02:19:57.607Z,99.99
2022-10-14T02:20:57.576Z,99.99
2022-10-14T02:21:57.559Z,99.99
2022-10-14T02:22:57.569Z,99.99
2022-10-14T02:23:57.569Z,99.99
2022-10-14T02:24:57.545Z,99.99
2022-10-14T02:25:57.528Z,99.99
2022-10-14T02:26:57.526Z,99.99
2022-10-14T02:27:57.504Z,99.99
2022-10-14T02:28:57.674Z,99.99
2022-10-14T02:29:57.525Z,99.99
2022-10-14T02:30:57.481Z,99.99
2022-10-14T02:31:57.461Z,99.99
2022-10-14T02:32:58.390Z,99.99
2022-10-14T02:33:57.429Z,99.99
2022-10-14T02:34:57.423Z,99.99
2022-10-14T02:35:57.468Z,99.99
2022-10-14T02:36:57.422Z,99.99
2022-10-14T02:37:57.406Z,99.99
2022-10-14T02:38:57.382Z,99.99
2022-10-14T02:39:57.362Z,99.99
2022-10-14T02:40:57.377Z,99.99
2022-10-14T02:41:57.375Z,99.99
2022-10-14T02:42:57.334Z,99.99
2022-10-14T02:43:57.336Z,99.99
2022-10-14T02:44:57.323Z,99.99
2022-10-14T02:45:57.323Z,99.99
2022-10-14T02:46:57.311Z,99.99
2022-10-14T02:47:57.293Z,99.99
2022-10-14T02:48:57.264Z,99.99
2022-10-14T02:49:57.259Z,99.99
2022-10-14T02:50:57.264Z,99.99
2022-10-14T02:51:57.279Z,99.99
2022-10-14T02:52:57.232Z,99.99
2022-10-14T02:53:57.256Z,99.99
2022-10-14T02:54:57.204Z,99.99
2022-10-14T02:55:57.221Z,99.99
2022-10-14T02:56:57.170Z,99.99
2022-10-14T02:57:57.191Z,99.99
2022-10-14T02:58:57.164Z,99.99
2022-10-14T02:59:57.186Z,99.99
2022-10-14T03:00:57.145Z,99.99
2022-10-14T03:01:57.217Z,99.99
2022-10-14T03:02:57.138Z,99.99
2022-10-14T03:03:57.128Z,99.99
2022-10-14T03:04:57.130Z,99.99
2022-10-14T03:05:57.095Z,99.99
2022-10-14T03:06:57.071Z,99.99
2022-10-14T03:07:57.075Z,99.99
2022-10-14T03:08:57.050Z,99.99
2022-10-14T03:09:57.118Z,99.99
2022-10-14T03:10:57.028Z,99.99
2022-10-14T03:11:57.012Z,99.99
2022-10-14T03:12:57.009Z,99.99
2022-10-14T03:13:56.993Z,99.99
2022-10-14T03:14:56.973Z,99.99
2022-10-14T03:15:56.992Z,99.99
2022-10-14T03:16:56.960Z,99.99
2022-10-14T03:17:56.942Z,99.99
2022-10-14T03:18:56.943Z,99.99
2022-10-14T03:19:56.968Z,99.99
2022-10-14T03:20:57.057Z,99.99
2022-10-14T03:21:56.902Z,99.99
2022-10-14T03:22:56.923Z,99.99
2022-10-14T03:23:56.882Z,99.99
2022-10-14T03:24:56.899Z,99.99
2022-10-14T03:25:56.845Z,99.99
2022-10-14T03:26:56.841Z,99.99
2022-10-14T03:27:56.842Z,99.99
2022-10-14T03:28:56.903Z,99.99
2022-10-14T03:29:56.816Z,99.99
2022-10-14T03:30:56.807Z,99.99
2022-10-14T03:31:56.807Z,99.99
2022-10-14T03:32:56.827Z,99.99
2022-10-14T03:33:56.769Z,99.99
2022-10-14T03:34:56.835Z,99.99
2022-10-14T03:35:56.770Z,99.99
2022-10-14T03:36:56.742Z,99.99
2022-10-14T03:37:56.919Z,99.99
2022-10-14T03:38:56.720Z,99.99
2022-10-14T03:39:56.728Z,99.99
2022-10-14T03:40:56.693Z,99.99
2022-10-14T03:41:56.670Z,99.99
2022-10-14T03:42:56.661Z,99.99
2022-10-14T03:43:56.679Z,99.99
2022-10-14T03:44:56.657Z,99.99
2022-10-14T03:45:56.651Z,99.99
2022-10-14T03:46:56.640Z,99.99
2022-10-14T03:47:56.614Z,99.99
2022-10-14T03:48:56.605Z,99.99
2022-10-14T03:49:56.652Z,99.99
2022-10-14T03:50:56.603Z,99.99
2022-10-14T03:51:56.563Z,99.99
2022-10-14T03:52:56.602Z,99.99
2022-10-14T03:53:56.569Z,99.99
2022-10-14T03:54:56.560Z,99.99
2022-10-14T03:55:56.541Z,99.99
2022-10-14T03:56:56.523Z,99.99
2022-10-14T03:57:56.503Z,99.99
2022-10-14T03:58:56.531Z,99.99
2022-10-14T03:59:56.498Z,99.99
2022-10-14T04:00:56.477Z,99.99
2022-10-14T04:01:56.539Z,99.99
2022-10-14T04:02:56.456Z,99.99
2022-10-14T04:03:56.693Z,99.99
2022-10-14T04:05:00.761Z,99.99
2022-10-14T04:05:56.430Z,99.99
2022-10-14T04:06:56.396Z,99.99
2022-10-14T04:07:56.406Z,99.99
2022-10-14T04:08:56.420Z,99.99
2022-10-14T04:09:56.408Z,99.99
2022-10-14T04:10:56.429Z,99.99
2022-10-14T04:11:57.799Z,99.99
2022-10-14T04:12:56.759Z,99.99
2022-10-14T04:13:56.759Z,99.99
2022-10-14T04:14:56.332Z,99.99
2022-10-14T04:15:56.306Z,99.99
2022-10-14T04:16:56.308Z,99.99
2022-10-14T04:17:57.742Z,99.99
2022-10-14T04:18:56.374Z,99.99
2022-10-14T04:19:56.302Z,99.99
2022-10-14T04:20:56.262Z,99.99
2022-10-14T04:21:56.248Z,99.99
2022-10-14T04:22:56.246Z,99.99
2022-10-14T04:23:56.253Z,99.99
2022-10-14T04:24:57.184Z,99.99
2022-10-14T04:25:56.229Z,99.99
2022-10-14T04:26:56.190Z,99.99
2022-10-14T04:27:56.204Z,99.99
2022-10-14T04:28:56.207Z,99.99
2022-10-14T04:29:56.151Z,99.99
2022-10-14T04:30:56.187Z,99.99
2022-10-14T04:31:56.226Z,99.99
2022-10-14T04:32:56.121Z,99.99
2022-10-14T04:33:56.137Z,99.99
2022-10-14T04:34:56.124Z,99.99
2022-10-14T04:35:56.084Z,99.99
2022-10-14T04:36:56.074Z,99.99
2022-10-14T04:37:56.089Z,99.99
2022-10-14T04:38:56.075Z,99.99
2022-10-14T04:39:56.037Z,99.99
2022-10-14T04:40:56.040Z,99.99
2022-10-14T04:41:56.051Z,99.99
2022-10-14T04:42:56.036Z,99.99
2022-10-14T04:43:56.089Z,99.99
2022-10-14T04:44:56.004Z,99.99
2022-10-14T04:45:55.989Z,99.99
2022-10-14T04:46:56.011Z,99.99
2022-10-14T04:47:55.963Z,99.99
2022-10-14T04:48:55.961Z,99.99
2022-10-14T04:49:55.986Z,99.99
2022-10-14T04:50:55.947Z,99.99
2022-10-14T04:51:56.146Z,99.99
2022-10-14T04:52:55.929Z,99.99
2022-10-14T04:53:55.910Z,99.99
2022-10-14T04:54:55.910Z,99.99
2022-10-14T04:55:55.879Z,99.99
2022-10-14T04:56:55.853Z,99.99
2022-10-14T04:57:55.872Z,99.99
2022-10-14T04:58:55.844Z,99.99
2022-10-14T04:59:55.823Z,99.99
2022-10-14T05:00:55.850Z,99.99
2022-10-14T05:01:55.881Z,99.99
2022-10-14T05:02:55.797Z,99.99
2022-10-14T05:03:55.784Z,99.99
2022-10-14T05:04:55.792Z,99.99
2022-10-14T05:05:55.777Z,99.99
2022-10-14T05:06:55.745Z,99.99
2022-10-14T05:07:55.741Z,99.99
2022-10-14T05:08:55.757Z,99.99
2022-10-14T05:09:56.838Z,99.99
2022-10-14T05:10:55.721Z,99.99
2022-10-14T05:11:55.699Z,99.99
2022-10-14T05:12:55.698Z,99.99
2022-10-14T05:13:55.665Z,99.99
2022-10-14T05:14:55.657Z,99.99
2022-10-14T05:15:55.671Z,99.99
2022-10-14T05:16:55.637Z,99.99
2022-10-14T05:17:55.637Z,99.99
2022-10-14T05:18:55.646Z,99.99
2022-10-14T05:19:55.615Z,99.99
2022-10-14T05:20:55.612Z,99.99
2022-10-14T05:21:55.598Z,99.99
2022-10-14T05:22:55.671Z,99.99
2022-10-14T05:23:55.571Z,99.99
2022-10-14T05:24:55.565Z,99.99
2022-10-14T05:25:55.543Z,99.99
2022-10-14T05:26:55.530Z,99.99
2022-10-14T05:27:55.540Z,99.99
2022-10-14T05:28:55.549Z,99.99
2022-10-14T05:29:55.490Z,99.99
2022-10-14T05:30:55.481Z,99.99
2022-10-14T05:31:55.487Z,99.99
2022-10-14T05:32:55.556Z,99.99
2022-10-14T05:33:55.492Z,99.99
2022-10-14T05:34:55.442Z,99.99
2022-10-14T05:35:59.041Z,99.99
2022-10-14T05:36:55.434Z,99.99
2022-10-14T05:37:55.416Z,99.99
2022-10-14T05:38:55.395Z,99.99
2022-10-14T05:39:55.431Z,99.99
2022-10-14T05:40:55.401Z,99.99
2022-10-14T05:41:55.853Z,99.99
2022-10-14T05:42:55.345Z,99.99
2022-10-14T05:43:55.885Z,99.99
2022-10-14T05:44:55.325Z,99.99
2022-10-14T05:45:55.415Z,99.99
2022-10-14T05:46:55.305Z,99.99
2022-10-14T05:47:55.361Z,99.99
2022-10-14T05:48:55.278Z,99.99
2022-10-14T05:49:55.298Z,99.99
2022-10-14T05:50:55.265Z,99.99
2022-10-14T05:51:55.274Z,99.99
2022-10-14T05:52:55.255Z,99.99
2022-10-14T05:53:56.181Z,99.99
2022-10-14T05:54:55.206Z,99.99
2022-10-14T05:55:55.218Z,99.99
2022-10-14T05:56:55.196Z,99.99
2022-10-14T05:57:55.531Z,99.99
2022-10-14T05:58:55.709Z,99.99
2022-10-14T05:59:55.177Z,99.99
2022-10-14T06:00:55.168Z,99.99
2022-10-14T06:01:55.171Z,99.99
2022-10-14T06:02:55.178Z,99.99
2022-10-14T06:03:55.175Z,99.99
2022-10-14T06:04:55.121Z,99.99
2022-10-14T06:05:55.090Z,99.99
2022-10-14T06:06:55.082Z,99.99
2022-10-14T06:07:55.103Z,99.99
2022-10-14T06:08:55.068Z,99.99
2022-10-14T06:09:55.061Z,99.99
2022-10-14T06:10:55.073Z,99.99
2022-10-14T06:11:55.033Z,99.99
2022-10-14T06:12:55.021Z,99.99
2022-10-14T06:13:55.010Z,99.99
2022-10-14T06:14:54.995Z,99.99
2022-10-14T06:15:56.453Z,99.99
2022-10-14T06:16:56.151Z,99.99
2022-10-14T06:17:54.987Z,99.99
2022-10-14T06:18:54.958Z,99.99
2022-10-14T06:19:54.953Z,99.99
2022-10-14T06:20:54.966Z,99.99
2022-10-14T06:21:54.926Z,99.99
2022-10-14T06:22:54.915Z,99.99
2022-10-14T06:23:54.951Z,99.99
2022-10-14T06:24:55.136Z,99.99
2022-10-14T06:25:54.866Z,99.99
2022-10-14T06:26:54.888Z,99.99
2022-10-14T06:27:54.854Z,99.99
2022-10-14T06:28:54.903Z,99.99
2022-10-14T06:29:54.870Z,99.99
2022-10-14T06:30:54.827Z,99.99
2022-10-14T06:31:54.856Z,99.99
2022-10-14T06:32:54.839Z,99.99
2022-10-14T06:33:54.832Z,99.99
2022-10-14T06:34:54.829Z,99.99
2022-10-14T06:35:54.769Z,99.99
2022-10-14T06:36:57.442Z,99.99
2022-10-14T06:37:55.818Z,99.99
2022-10-14T06:38:54.751Z,99.99
2022-10-14T06:39:54.718Z,99.99
2022-10-14T06:40:54.750Z,99.99
2022-10-14T06:41:54.712Z,99.99
2022-10-14T06:42:54.697Z,99.99
2022-10-14T06:43:54.700Z,99.99
2022-10-14T06:44:54.669Z,99.99
2022-10-14T06:45:54.653Z,99.99
2022-10-14T06:46:54.710Z,99.99
2022-10-14T06:47:54.635Z,99.99
2022-10-14T06:48:54.649Z,99.99
2022-10-14T06:49:54.634Z,99.99
2022-10-14T06:50:54.630Z,99.99
2022-10-14T06:51:54.614Z,99.99
2022-10-14T06:52:54.574Z,99.99
2022-10-14T06:53:54.584Z,99.99
2022-10-14T06:54:54.569Z,99.99
2022-10-14T06:55:54.714Z,99.99
2022-10-14T06:56:55.277Z,99.99
2022-10-14T06:57:54.535Z,99.99
2022-10-14T06:58:54.518Z,99.99
2022-10-14T06:59:54.501Z,99.99
2022-10-14T07:00:54.563Z,99.99
2022-10-14T07:01:54.592Z,99.99
2022-10-14T07:02:54.483Z,99.99
2022-10-14T07:03:56.753Z,99.99
2022-10-14T07:04:54.452Z,99.99
2022-10-14T07:05:54.450Z,99.99
2022-10-14T07:06:54.447Z,99.99
2022-10-14T07:07:54.487Z,99.99
2022-10-14T07:08:54.430Z,99.99
2022-10-14T07:09:54.398Z,99.99
2022-10-14T07:10:54.407Z,99.99
2022-10-14T07:11:54.369Z,99.99
2022-10-14T07:12:54.394Z,99.99
2022-10-14T07:13:54.340Z,99.99
2022-10-14T07:14:54.338Z,99.99
2022-10-14T07:15:54.324Z,99.99
2022-10-14T07:16:54.309Z,99.99
2022-10-14T07:17:54.347Z,99.99
2022-10-14T07:18:54.302Z,99.99
2022-10-14T07:19:54.284Z,99.99
2022-10-14T07:20:54.315Z,99.99
2022-10-14T07:21:54.260Z,99.99
2022-10-14T07:22:54.284Z,99.99
2022-10-14T07:23:54.262Z,99.99
2022-10-14T07:24:54.269Z,99.99
2022-10-14T07:25:54.213Z,99.99
2022-10-14T07:26:54.287Z,99.99
2022-10-14T07:27:54.229Z,99.99
2022-10-14T07:28:54.281Z,99.99
2022-10-14T07:29:54.195Z,99.99
2022-10-14T07:30:54.161Z,99.99
2022-10-14T07:31:54.171Z,99.99
2022-10-14T07:32:54.164Z,99.99
2022-10-14T07:33:54.144Z,99.99
2022-10-14T07:34:54.118Z,99.99
2022-10-14T07:35:54.144Z,99.99
2022-10-14T07:36:54.094Z,99.99
2022-10-14T07:37:54.075Z,99.99
2022-10-14T07:38:54.086Z,99.99
2022-10-14T07:39:54.070Z,99.99
2022-10-14T07:40:54.097Z,99.99
2022-10-14T07:41:54.053Z,99.99
2022-10-14T07:42:54.037Z,99.99
2022-10-14T07:43:54.021Z,99.99
2022-10-14T07:44:54.015Z,99.99
2022-10-14T07:45:53.997Z,99.99
2022-10-14T07:46:54.005Z,99.99
2022-10-14T07:47:54.046Z,99.99
2022-10-14T07:48:57.266Z,99.99
2022-10-14T07:49:53.956Z,99.99
2022-10-14T07:50:53.952Z,99.99
2022-10-14T07:51:53.944Z,99.99
2022-10-14T07:52:56.666Z,99.99
2022-10-14T07:53:54.910Z,99.99
2022-10-14T07:54:53.911Z,99.99
2022-10-14T07:55:53.889Z,99.99
2022-10-14T07:56:53.910Z,99.99
2022-10-14T07:57:53.897Z,99.99
2022-10-14T07:58:53.871Z,99.99
2022-10-14T07:59:53.843Z,99.99
2022-10-14T08:00:53.851Z,99.99
2022-10-14T08:01:53.883Z,99.99
2022-10-14T08:02:53.862Z,99.99
2022-10-14T08:03:53.790Z,99.99
2022-10-14T08:04:53.793Z,99.99
2022-10-14T08:05:53.824Z,99.99
2022-10-14T08:06:53.767Z,99.99
2022-10-14T08:07:53.760Z,99.99
2022-10-14T08:08:53.776Z,99.99
2022-10-14T08:09:53.767Z,99.99
2022-10-14T08:10:53.727Z,99.99
2022-10-14T08:11:53.716Z,99.99
2022-10-14T08:12:53.699Z,99.99
2022-10-14T08:13:53.689Z,99.99
2022-10-14T08:14:53.696Z,99.99
2022-10-14T08:15:53.678Z,99.99
2022-10-14T08:16:53.674Z,99.99
2022-10-14T08:17:53.647Z,99.99
2022-10-14T08:18:53.633Z,99.99
2022-10-14T08:19:53.633Z,99.99
2022-10-14T08:20:53.617Z,99.99
2022-10-14T08:21:53.611Z,99.99
2022-10-14T08:22:53.588Z,99.99
2022-10-14T08:23:53.575Z,99.99
2022-10-14T08:24:53.717Z,99.99
2022-10-14T08:25:53.555Z,99.99
2022-10-14T08:26:53.550Z,99.99
2022-10-14T08:27:53.538Z,99.99
2022-10-14T08:28:53.569Z,99.99
2022-10-14T08:29:53.510Z,99.99
2022-10-14T08:30:53.532Z,99.99
2022-10-14T08:31:53.492Z,99.99
2022-10-14T08:32:53.480Z,99.99
2022-10-14T08:33:53.474Z,99.99
2022-10-14T08:34:53.455Z,99.99
2022-10-14T08:35:54.304Z,99.99
2022-10-14T08:36:53.444Z,99.99
2022-10-14T08:37:53.420Z,99.99
2022-10-14T08:38:53.423Z,99.99
2022-10-14T08:39:53.402Z,99.99
2022-10-14T08:40:55.721Z,99.99
2022-10-14T08:41:53.379Z,99.99
2022-10-14T08:42:53.551Z,99.99
2022-10-14T08:43:53.365Z,99.99
2022-10-14T08:44:53.489Z,99.99
2022-10-14T08:45:53.324Z,99.99
2022-10-14T08:46:53.325Z,99.89
2022-10-14T08:47:53.334Z,99.79
2022-10-14T08:48:53.310Z,99.79
2022-10-14T08:49:53.335Z,99.74
2022-10-14T08:50:53.285Z,99.64
2022-10-14T08:51:53.262Z,99.54
2022-10-14T08:52:53.297Z,99.33
2022-10-14T08:53:53.252Z,99.33
2022-10-14T08:54:53.226Z,99.24
2022-10-14T08:55:53.224Z,99.24
2022-10-14T08:56:53.237Z,99.24
2022-10-14T08:57:53.237Z,99.24
2022-10-14T08:58:53.197Z,99.13
2022-10-14T08:59:53.179Z,99.04
2022-10-14T09:00:53.186Z,99.04
2022-10-14T09:01:53.161Z,99.04
2022-10-14T09:02:53.193Z,99.04
2022-10-14T09:03:53.204Z,98.93
2022-10-14T09:04:53.226Z,98.93
2022-10-14T09:05:53.156Z,98.93
2022-10-14T09:06:53.095Z,98.93
2022-10-14T09:07:53.091Z,98.93
2022-10-14T09:08:53.072Z,98.93
2022-10-14T09:09:53.218Z,98.83
2022-10-14T09:10:53.060Z,98.83
2022-10-14T09:11:53.054Z,98.63
2022-10-14T09:12:53.047Z,98.63
2022-10-14T09:13:53.024Z,98.52
2022-10-14T09:14:53.016Z,98.63
2022-10-14T09:15:53.033Z,98.63
2022-10-14T09:16:54.286Z,98.52
2022-10-14T09:17:53.054Z,98.52
2022-10-14T09:18:54.759Z,98.48
2022-10-14T09:19:53.111Z,98.38
2022-10-14T09:20:52.963Z,98.28
2022-10-14T09:21:53.614Z,98.22
2022-10-14T09:23:52.897Z,98.22
2022-10-14T09:24:52.999Z,98.32
2022-10-14T09:25:52.889Z,98.32
2022-10-14T09:26:52.945Z,98.22
2022-10-14T09:27:52.903Z,98.22
2022-10-14T09:28:53.070Z,98.22
2022-10-14T09:29:52.840Z,98.18
2022-10-14T09:30:52.868Z,98.28
2022-10-14T09:31:52.845Z,98.28
2022-10-14T09:32:52.811Z,98.18
2022-10-14T09:33:52.833Z,98.18
2022-10-14T09:34:52.902Z,98.07
2022-10-14T09:35:52.917Z,98.07
2022-10-14T09:37:52.752Z,97.97
2022-10-14T09:38:52.828Z,97.92
2022-10-14T09:39:52.739Z,97.72
2022-10-14T09:40:52.721Z,97.72
2022-10-14T09:41:52.730Z,97.62
2022-10-14T09:42:52.700Z,97.52
2022-10-14T09:43:52.683Z,97.42
2022-10-14T09:44:52.865Z,97.22
2022-10-14T09:45:52.702Z,97.02
2022-10-14T09:46:52.665Z,96.91
2022-10-14T09:47:52.900Z,96.81
2022-10-14T09:48:52.662Z,96.91
2022-10-14T09:49:52.615Z,96.91
2022-10-14T09:50:52.647Z,96.91
2022-10-14T09:51:52.603Z,97.02
2022-10-14T09:52:52.593Z,97.11
2022-10-14T09:53:52.563Z,97.11
2022-10-14T09:54:52.583Z,97.02
2022-10-14T09:55:52.614Z,97.02
2022-10-14T09:56:52.566Z,97.02
2022-10-14T09:57:52.554Z,97.02
2022-10-14T09:58:54.476Z,97.02
2022-10-14T09:59:52.575Z,97.02
2022-10-14T10:00:52.505Z,97.02
2022-10-14T10:01:52.550Z,97.02
2022-10-14T10:02:52.475Z,96.91
2022-10-14T10:03:52.538Z,96.91
2022-10-14T10:04:52.536Z,96.71
2022-10-14T10:05:52.448Z,96.71
2022-10-14T10:06:52.453Z,96.71
2022-10-14T10:07:52.438Z,96.61
2022-10-14T10:08:52.409Z,96.51
2022-10-14T10:09:52.435Z,96.51
2022-10-14T10:10:52.395Z,96.51
2022-10-14T10:11:52.380Z,96.51
2022-10-14T10:12:52.381Z,96.51
2022-10-14T10:13:52.383Z,96.61
2022-10-14T10:14:52.340Z,96.61
2022-10-14T10:15:52.343Z,96.61
2022-10-14T10:16:52.356Z,96.61
2022-10-14T10:17:52.319Z,96.66
2022-10-14T10:18:52.300Z,96.61
2022-10-14T10:19:52.362Z,96.56
2022-10-14T10:20:53.296Z,96.56
2022-10-14T10:21:52.271Z,96.56
2022-10-14T10:22:52.282Z,96.56
2022-10-14T10:23:52.242Z,96.56
2022-10-14T10:24:52.243Z,96.46
2022-10-14T10:25:52.257Z,96.36
2022-10-14T10:26:52.227Z,96.36
2022-10-14T10:27:52.203Z,96.36
2022-10-14T10:28:52.236Z,96.46
2022-10-14T10:29:52.182Z,96.46
2022-10-14T10:30:52.211Z,96.46
2022-10-14T10:31:52.224Z,96.46
2022-10-14T10:32:52.522Z,96.46
2022-10-14T10:33:52.158Z,96.36
2022-10-14T10:34:52.201Z,96.26
2022-10-14T10:35:52.119Z,96.26
2022-10-14T10:36:52.153Z,96.26
2022-10-14T10:37:52.091Z,96.26
2022-10-14T10:38:52.174Z,96.36
2022-10-14T10:39:52.188Z,96.36
2022-10-14T10:40:52.058Z,96.26
2022-10-14T10:41:52.072Z,96.15
2022-10-14T10:42:52.083Z,96.15
2022-10-14T10:43:52.808Z,96.15
2022-10-14T10:44:52.046Z,96.06
2022-10-14T10:45:52.025Z,95.95
2022-10-14T10:46:52.005Z,95.95
2022-10-14T10:47:52.058Z,95.95
2022-10-14T10:48:52.127Z,96.06
2022-10-14T10:49:52.062Z,96.06
2022-10-14T10:50:51.967Z,95.95
2022-10-14T10:51:51.958Z,95.95
2022-10-14T10:52:51.949Z,95.95
2022-10-14T10:53:52.161Z,95.86
2022-10-14T10:54:51.925Z,95.86
2022-10-14T10:55:52.201Z,95.75
2022-10-14T10:56:51.936Z,95.75
2022-10-14T10:57:51.918Z,95.65
2022-10-14T10:58:51.888Z,95.75
2022-10-14T10:59:51.919Z,95.86
2022-10-14T11:00:51.865Z,95.86
2022-10-14T11:01:52.361Z,95.95
2022-10-14T11:02:51.863Z,95.86
2022-10-14T11:03:51.845Z,95.86
2022-10-14T11:04:51.812Z,95.75
2022-10-14T11:05:51.811Z,95.71
2022-10-14T11:06:51.793Z,95.61
2022-10-14T11:07:51.782Z,95.61
2022-10-14T11:08:51.792Z,95.50
2022-10-14T11:09:51.766Z,95.50
2022-10-14T11:10:51.757Z,95.61
2022-10-14T11:11:51.743Z,95.61
2022-10-14T11:12:51.743Z,95.50
2022-10-14T11:13:51.713Z,95.50
2022-10-14T11:14:51.869Z,95.61
2022-10-14T11:15:51.706Z,95.61
2022-10-14T11:16:51.683Z,95.61
2022-10-14T11:17:51.686Z,95.65
2022-10-14T11:18:51.670Z,95.86
2022-10-14T11:19:51.694Z,95.95
2022-10-14T11:20:51.696Z,96.15
2022-10-14T11:21:51.656Z,96.26
2022-10-14T11:22:51.623Z,96.46
2022-10-14T11:23:51.632Z,96.56
2022-10-14T11:24:51.587Z,96.56
2022-10-14T11:25:51.611Z,96.66
2022-10-14T11:26:51.598Z,96.87
2022-10-14T11:27:51.571Z,96.97
2022-10-14T11:28:51.614Z,97.07
2022-10-14T11:29:51.794Z,97.27
2022-10-14T11:30:51.513Z,97.27
2022-10-14T11:31:51.721Z,97.38
2022-10-14T11:32:51.512Z,97.58
2022-10-14T11:33:51.532Z,97.78
2022-10-14T11:34:51.463Z,97.88
2022-10-14T11:35:51.551Z,98.03
2022-10-14T11:36:51.621Z,98.13
2022-10-14T11:37:51.520Z,98.23
2022-10-14T11:38:52.146Z,98.43
2022-10-14T11:39:53.387Z,98.43
2022-10-14T11:40:52.355Z,98.63
2022-10-14T11:41:51.385Z,98.74
2022-10-14T11:42:51.366Z,98.84
2022-10-14T11:43:51.358Z,98.94
2022-10-14T11:44:52.329Z,99.04
2022-10-14T11:45:51.566Z,99.14
2022-10-14T11:46:51.356Z,99.14
2022-10-14T11:47:51.316Z,99.14
2022-10-14T11:48:51.297Z,99.24
2022-10-14T11:49:52.101Z,99.19
2022-10-14T11:50:51.291Z,99.30
2022-10-14T11:51:51.288Z,99.30
2022-10-14T11:52:51.276Z,99.30
2022-10-14T11:53:51.249Z,99.30
2022-10-14T11:54:51.261Z,99.30
2022-10-14T11:55:51.281Z,99.30
2022-10-14T11:56:51.225Z,99.30
2022-10-14T11:57:51.204Z,99.30
2022-10-14T11:58:51.188Z,99.30
2022-10-14T11:59:51.238Z,99.30
2022-10-14T12:00:51.171Z,99.40
2022-10-14T12:01:51.579Z,99.30
2022-10-14T12:02:51.210Z,99.40
2022-10-14T12:03:51.145Z,99.40
2022-10-14T12:04:51.123Z,99.35
2022-10-14T12:05:51.148Z,99.35
2022-10-14T12:06:51.109Z,99.25
2022-10-14T12:07:51.131Z,99.25
2022-10-14T12:08:51.083Z,99.25
2022-10-14T12:09:53.430Z,99.15
2022-10-14T12:10:51.086Z,99.15
2022-10-14T12:11:51.063Z,99.15
2022-10-14T12:12:51.079Z,99.15
2022-10-14T12:13:51.024Z,99.15
2022-10-14T12:14:51.022Z,99.05
2022-10-14T12:15:51.015Z,99.15
2022-10-14T12:16:50.995Z,99.15
2022-10-14T12:17:50.977Z,99.05
2022-10-14T12:18:51.017Z,99.05
2022-10-14T12:19:50.968Z,99.05
2022-10-14T12:20:50.932Z,99.05
2022-10-14T12:21:50.963Z,99.05
2022-10-14T12:22:50.934Z,99.15
2022-10-14T12:23:50.927Z,99.15
2022-10-14T12:24:50.930Z,99.15
2022-10-14T12:25:50.904Z,99.15
2022-10-14T12:26:51.070Z,99.15
2022-10-14T12:27:50.878Z,99.15
2022-10-14T12:28:52.864Z,99.25
2022-10-14T12:29:50.889Z,99.25
2022-10-14T12:30:50.841Z,99.35
2022-10-14T12:31:50.849Z,99.35
2022-10-14T12:32:50.821Z,99.35
2022-10-14T12:33:50.839Z,99.35
2022-10-14T12:34:50.827Z,99.35
2022-10-14T12:35:50.781Z,99.35
2022-10-14T12:36:51.360Z,99.35
2022-10-14T12:37:51.403Z,99.25
2022-10-14T12:38:51.392Z,99.25
2022-10-14T12:39:50.755Z,99.25
2022-10-14T12:40:50.739Z,99.25
2022-10-14T12:41:50.762Z,99.25
2022-10-14T12:42:50.796Z,99.35
2022-10-14T12:43:52.315Z,99.35
2022-10-14T12:44:50.686Z,99.35
2022-10-14T12:45:50.756Z,99.35
2022-10-14T12:46:50.682Z,99.35
2022-10-14T12:47:51.000Z,99.35
2022-10-14T12:48:51.281Z,99.35
2022-10-14T12:49:51.215Z,99.30
2022-10-14T12:50:51.906Z,99.30
2022-10-14T12:51:50.798Z,99.30
2022-10-14T12:52:50.635Z,99.41
2022-10-14T12:53:50.746Z,99.41
2022-10-14T12:55:50.651Z,99.35